Pendergrass, GA

10:09 PM EST on January 23, 2017 (GMT -0500)
MGA336 | | Change Station

Elev 810 ft 34.15 °N, 83.65 °W | Updated 2 minutes ago

Clear
Clear
51.0 °F
Feels Like 51.0 °F
N
7.0
Wind Variable Wind from WSW
Gusts 13.0 mph

Today
High -- | Low -- °F
--% Chance of Precip.
Yesterday
High -- | Low -- °F
Precip. -- in
Pressure 29.63 in
Visibility 10.0 miles
Clouds Scattered Clouds 2600 ft
Dew Point 42 °F
Humidity 72%
Rainfall 0.00 in
Snow Depth Not available.
7:37 AM 5:56 PM
Waning Crescent, 14% visible
METAR KGVL 240253Z AUTO 30010KT 10SM SCT026 09/06 A2964 RMK AO2 SLP032 T00890056 51029
Pressure 29.63 in
Visibility 10.0 miles
Clouds Scattered Clouds 2600 ft
Dew Point 42 °F
Humidity 72%
Rainfall 0.00 in
Snow Depth Not available.
7:37 AM 5:56 PM
Waning Crescent, 14% visible
METAR KGVL 240253Z AUTO 30010KT 10SM SCT026 09/06 A2964 RMK AO2 SLP032 T00890056 51029

Get Your Daily Forecast Email!

Thanks for signing up!

Be on the lookout for a verification email in your inbox.

You'll start receiving the daily forecast at 8 AM.

×

10-Day Weather Forecast

Almanac

Astronomy

Jan. 23, 2017 Rise Set
Actual Time
Civil Twilight
Nautical Twilight
Astronomical Twilight
Moon
Length of Visible Light
Length of Day
Tomorrow will be .
, % of the Moon is Illuminated

Today's Extremes

State Highs State Lows

Community

WunderPhotos

Upload Photos

1,962,540 photos uploaded!

WunderBlog® & News

Nearby

Air Quality

  Air Quality AQ Index Pollutant
Not available.

Snow Depth

Station Depth Elevation

Earthquake Activity

City Distance Mag. Time & Date
Minimum magnitude displayed is 2.5.

Coastal Water Temperatures

Place Temperature

Stations

Nearby Weather Stations

Station Location Temp. Windchill Dew Point Humidity Wind Precip. Elev Updated Type
                   

Watches & Warnings

There are currently no watches in effect.